White Owl, South Dakota
Current Conditions -  °F | °C
As of 1:58 AM on Thursday 27 Nov 2014 (Local Time) from KRCA Reporting Station
Overcast Overcast  
Wind Chill: 13°   Ceiling: 300
Heat Index: 20°   Visibility: 10mi
Dew Point: 19°   Wind: 6mph
Humidity: 93%   Direction: 110°ESE
Pressure: 30.22"   Gusts: NA
Location:  44.59°N, 102.43°W
Report Text: KRCA 270858Z AUTO 11005KT 10SM OVC003 M06/M07 A3022 RMK AO2 SLP277 T10641074 57009 $
Loading
Personal Weather Stations






























Interactive Weather Map New forecast layout! Learn more

10-Day Weather Forecast

Advertisements
Track Severe Weather on mobile